Tiempo atmosférico en la estación meteorológica de Medina De Rioseco, Valladolid (731 m.)



Fecha
DESCASC
Temp. máxima en grados centígrados (hora)
DESCASC
Temp. mínima en grados centígrados (hora)
DESCASC
Temp. media en grados centígrados
DESCASC
Racha de viento máxima en m/sg (hora)
DESCASC
Velocidad máxima media en intervalos de 10 minutos(hora)
DESCASC
Precipitaciones diarias en mm
DESCASC
Precipitaciones de 00:00 a 06:00 en mm
DESCASC
Precipitaciones de 06:00 a 12:00 en mm
DESCASC
Precipitaciones de 12:00 a 18:00 en mm
DESCASC
Precipitaciones de 18:00 a 24:00 en mm
DESCASC
19-05-2019 18.7 (17:40) 2.2 (06:40) 10.5 11.39 (18:00) 5.56 (22:40) 0 0 0 0 0
18-05-2019 16 (15:40) -0.3 (07:10) 7.8 11.67 (14:10) 6.67 (12:10) 0 0 0 0 0
17-05-2019 16.8 (17:40) 5.9 (03:10) 11.3 12.5 (18:20) 8.33 (10:00) 0 0 0 0 0
16-05-2019 24.4 (14:00) 8.7 (00:00) 16.5 16.39 (21:00) 9.44 (21:00) 0.4 0 0 0 0.4
15-05-2019 29.9 (18:00) 5.4 (00:00) 17.6 6.67 (21:50) 3.06 (07:30) 0 0 0 0 0
14-05-2019 28.7 (17:40) 4 (00:00) 16.4 10.83 (01:30) 5 (01:40) 0 0 0 0 0
13-05-2019 24.7 (16:40) 5.1 (00:00) 14.9 13.06 (13:30) 6.67 (13:30) 0 0 0 0 0
12-05-2019 23.2 (16:50) 3.6 (00:00) 13.4 10 (18:30) 5.28 (15:30) 0 0 0 0 0
11-05-2019 21.6 (17:00) 2.4 (00:00) 12 8.33 (23:00) 4.17 (23:00) 0 0 0 0 0
10-05-2019 22.7 (16:00) 9.9 (00:00) 16.3 13.89 (18:00) 8.61 (17:50) 0.4 0 0.4 0 0
09-05-2019 16.9 (20:40) 4.8 (00:00) 10.8 16.39 (17:00) 8.61 (17:50) 0 0 0 0 0
08-05-2019 17.4 (16:10) 9 (00:00) 13.2 20 (15:50) 12.78 (15:40) 2 0.2 1.8 0 0
07-05-2019 18.9 (15:30) 6.4 (00:00) 12.6 13.06 (16:10) 8.33 (15:20) 2.8 0 0 0 2.8
06-05-2019 24 (18:20) 0.7 (00:00) 12.3 9.44 (19:00) 5.56 (19:10) 0 0 0 0 0
05-05-2019 17.3 (17:50) 4.1 (00:00) 10.7 11.11 (00:50) 6.67 (02:00) 0 0 0 0 0
04-05-2019 21 (19:00) 0.8 (00:00) 10.9 13.89 (21:50) 8.06 (22:00) 0 0 0 0 0
03-05-2019 17.3 (18:20) 2.2 (00:00) 9.7 12.22 (20:00) 6.39 (20:30) 0 0 0 0 0
02-05-2019 19.3 (17:20) 4.7 (07:30) 12 13.89 (09:20) 6.94 (09:30) 0 0 0 0 0
01-05-2019 24.6 (17:50) 5.2 (00:00) 14.9 13.89 (20:00) 7.5 (21:00) 0 0 0 0 0
30-04-2019 23.1 (18:00) 6 (00:00) 14.6 7.78 (00:20) 4.72 (00:20) 0 0 0 0 0
29-04-2019 23.9 (18:30) 5.7 (00:00) 14.8 5.83 (05:00) 3.61 (06:00) 0 0 0 0 0
28-04-2019 21 (17:50) 4.6 (00:00) 12.8 6.39 (00:10) 4.17 (03:10) 0 0 0 0 0
27-04-2019 19.2 (19:10) 0 (00:00) 9.6 5.56 (13:00) 3.61 (23:59) 0 0 0 0 0
26-04-2019 14.9 (17:00) 2.9 (00:00) 8.9 10.28 (17:00) 6.39 (00:30) 0 0 0 0 0
25-04-2019 10.6 (15:10) 3.3 (00:00) 7 20 (18:20) 10.28 (18:20) 5.8 2.6 0.6 0.8 1.8
24-04-2019 13.6 (15:20) 1.4 (00:00) 7.5 18.61 (15:20) 11.39 (13:40) 16.6 0 5.8 4.4 6.4
23-04-2019 12.7 (15:20) 3.6 (00:00) 8.1 14.44 (17:20) 9.72 (17:20) 1.6 1.4 0.2 0 0

Gráficas

Temp. máximas Temp. mínimas Temp. medias Precipitaciones Rachas de viento máximas Velocidades máximas media en intervalos de 10 minutos

Datos horarios

Fecha y hora oficial Temperatura (ºC) Velocidad del viento (km/h) Dirección del viento Racha (km/h) Dirección de racha Precipitación (mm) Presión (hPa) Tendencia (hPa) Humedad (%)
2019-05-22 23:00:00 14.9 4 Sur 7 Sur 0 -- -- 58
2019-05-22 22:00:00 19.6 2 Sur 8 Oeste 0 -- -- 54
2019-05-22 21:00:00 23.5 4 Sudoeste 16 Oeste 0 -- -- 35
2019-05-22 20:00:00 24.9 9 Sudoeste 22 Oeste 0 -- -- 29
2019-05-22 19:00:00 26.3 6 Noroeste 17 Sur 0 -- -- 25
2019-05-22 18:00:00 26.2 9 Sudoeste 21 Oeste 0 -- -- 27
2019-05-22 17:00:00 25.9 7 Sudoeste 23 Oeste 0 -- -- 31
2019-05-22 16:00:00 25.3 11 Noroeste 26 Oeste 0 -- -- 31
2019-05-22 15:00:00 25.2 7 Sudoeste 21 Noroeste 0 -- -- 32
2019-05-22 14:00:00 24.2 9 Sudoeste 21 Sudoeste 0 -- -- 33
2019-05-22 13:00:00 22.7 5 Noroeste 14 Noroeste 0 -- -- 39
2019-05-22 12:00:00 20.5 7 Nordeste 15 Nordeste 0 -- -- 40
2019-05-22 11:00:00 17.9 8 Este 17 Nordeste 0 -- -- 47
2019-05-22 10:00:00 13.9 11 Este 17 Nordeste 0 -- -- 58
2019-05-22 09:00:00 10.6 12 Nordeste 21 Nordeste 0 -- -- 69
2019-05-22 08:00:00 8.1 9 Nordeste 18 Este 0 -- -- 80
2019-05-22 07:00:00 6 8 Nordeste 14 Nordeste 0 -- -- 88
2019-05-22 06:00:00 6.9 8 Nordeste 19 Este 0 -- -- 85
2019-05-22 05:00:00 7.9 6 Nordeste 22 Este 0 -- -- 82
2019-05-22 04:00:00 8.9 12 Nordeste 19 Nordeste 0 -- -- 80
2019-05-22 03:00:00 9.8 8 Norte 16 Nordeste 0 -- -- 78
2019-05-22 02:00:00 10.7 7 Norte 14 Nordeste 0 -- -- 74
2019-05-22 01:00:00 11.9 5 Nordeste 21 Este 0 -- -- 68
2019-05-22 00:00:00 13.9 13 Este 35 Este 0 -- -- 58
2019-05-21 23:00:00 16.8 12 Este 20 Este 0 -- -- 42
2019-05-21 22:00:00 18.1 9 Este 18 Este 0 -- -- 35
2019-05-21 21:00:00 20.3 10 Este 20 Este 0 -- -- 32
2019-05-21 20:00:00 22.7 6 Nordeste 19 Nordeste 0 -- -- 29
2019-05-21 19:00:00 22.9 10 Este 21 Este 0 -- -- 29
2019-05-21 18:00:00 23.5 5 Sur 19 Nordeste 0 -- -- 29
2019-05-21 17:00:00 23.2 8 Nordeste 20 Nordeste 0 -- -- 29
2019-05-21 16:00:00 22.2 9 Nordeste 30 Este 0 -- -- 31
2019-05-21 15:00:00 22 10 Este 22 Este 0 -- -- 32
2019-05-21 14:00:00 20.2 10 Sudeste 21 Este 0 -- -- 35
2019-05-21 13:00:00 20.2 7 Nordeste 22 Este 0 -- -- 36
2019-05-21 12:00:00 18.4 11 Este 22 Nordeste 0 -- -- 44
2019-05-21 11:00:00 15.5 12 Sudeste 21 Este 0 -- -- 54
2019-05-21 10:00:00 12.6 10 Este 20 Este 0 -- -- 64
2019-05-21 09:00:00 9.3 11 Este 20 Este 0 -- -- 75
2019-05-21 08:00:00 8.1 12 Este 18 Este 0 -- -- 79
2019-05-21 07:00:00 7.6 7 Nordeste 22 Nordeste 0 -- -- 80
2019-05-21 06:00:00 8.2 12 Nordeste 23 Nordeste 0 -- -- 80
2019-05-21 05:00:00 8.6 10 Nordeste 23 Este 0 -- -- 80
2019-05-21 04:00:00 9 12 Nordeste 24 Nordeste 0 -- -- 81
2019-05-21 03:00:00 9.6 9 Nordeste 19 Nordeste 0 -- -- 80
2019-05-21 02:00:00 10.2 8 Nordeste 23 Este 0 -- -- 75
2019-05-21 01:00:00 10.3 5 Sudeste 12 Sudeste 0 -- -- 61
2019-05-21 00:00:00 11.3 4 Sur 12 Nordeste 0 -- -- 53
2019-05-20 23:00:00 11 2 Norte 6 Oeste 0 -- -- 54
2019-05-20 22:00:00 13.7 2 Sudoeste 8 Oeste 0 -- -- 54
2019-05-20 21:00:00 17.5 5 Noroeste 10 Oeste 0 -- -- 40
2019-05-20 20:00:00 19.3 8 Oeste 18 Oeste 0 -- -- 28
2019-05-20 19:00:00 19.3 8 Oeste 22 Oeste 0 -- -- 31
2019-05-20 18:00:00 20.3 9 Sudoeste 27 Oeste 0 -- -- 30
2019-05-20 17:00:00 19.9 10 Oeste 28 Oeste 0 -- -- 33
2019-05-20 16:00:00 20 10 Oeste 23 Oeste 0 -- -- 35
2019-05-20 15:00:00 19.5 7 Oeste 25 Oeste 0 -- -- 34
2019-05-20 14:00:00 18.7 5 Este 17 Sudoeste 0 -- -- 35
2019-05-20 13:00:00 16.8 6 Sudeste 17 Sur 0 -- -- 42
2019-05-20 12:00:00 15.8 7 Sudeste 19 Sudeste 0 -- -- 45
2019-05-20 11:00:00 14.1 10 Este 24 Sur 0 -- -- 51
2019-05-20 10:00:00 11.2 9 Nordeste 19 Nordeste 0 -- -- 64
2019-05-20 09:00:00 7.3 8 Nordeste 14 Nordeste 0 -- -- 76
2019-05-20 08:00:00 5.1 5 Nordeste 15 Nordeste 0 -- -- 82
2019-05-20 07:00:00 3.3 8 Nordeste 15 Nordeste 0 -- -- 86
2019-05-20 06:00:00 3.3 5 Nordeste 12 Nordeste 0 -- -- 86
2019-05-20 05:00:00 3.2 7 Nordeste 13 Nordeste 0 -- -- 86
2019-05-20 04:00:00 4.3 7 Nordeste 16 Norte 0 -- -- 82
2019-05-20 03:00:00 5.5 4 Nordeste 26 Este 0 -- -- 77
2019-05-20 02:00:00 6.6 12 Este 28 Este 0 -- -- 74
2019-05-20 01:00:00 7.1 5 Nordeste 28 Este 0 -- -- 74
2019-05-20 00:00:00 8.7 17 Este 31 Este 0 -- -- 69
2019-05-19 23:00:00 9.8 17 Este 35 Este 0 -- -- 66
2019-05-19 22:00:00 12.6 12 Este 33 Este 0 -- -- 55
2019-05-19 21:00:00 17.1 2 Sudoeste 12 Noroeste 0 -- -- 30
2019-05-19 20:00:00 17.3 6 Noroeste 16 Noroeste 0 -- -- 28
2019-05-19 19:00:00 18.1 5 Este 24 Norte 0 -- -- 28
2019-05-19 18:00:00 18.6 8 Oeste 41 Noroeste 0 -- -- 27
2019-05-19 17:00:00 17.8 6 Norte 29 Noroeste 0 -- -- 28
2019-05-19 16:00:00 17.2 9 Oeste 21 Noroeste 0 -- -- 31
2019-05-19 15:00:00 16.6 13 Oeste 24 Oeste 0 -- -- 36
2019-05-19 14:00:00 15.9 9 Oeste 28 Noroeste 0 -- -- 37
2019-05-19 13:00:00 14.2 9 Oeste 22 Noroeste 0 -- -- 42
2019-05-19 12:00:00 13.6 7 Sudoeste 22 Noroeste 0 -- -- 43
2019-05-19 11:00:00 12.2 9 Noroeste 16 Norte 0 -- -- 51
2019-05-19 10:00:00 10.9 8 Norte 17 Norte 0 -- -- 56
2019-05-19 09:00:00 7.7 5 Oeste 8 Oeste 0 -- -- 74
2019-05-19 08:00:00 4.3 5 Noroeste 10 Norte 0 -- -- 85
2019-05-19 07:00:00 2.8 5 Nordeste 10 Nordeste 0 -- -- 87
2019-05-19 06:00:00 3.4 5 Norte 12 Noroeste 0 -- -- 83
2019-05-19 05:00:00 4 6 Norte 15 Norte 0 -- -- 82
2019-05-19 04:00:00 5.5 8 Nordeste 21 Nordeste 0 -- -- 77
2019-05-19 03:00:00 5.4 6 Norte 10 Norte 0 -- -- 78
2019-05-19 02:00:00 5.9 3 Sur 17 Norte 0 -- -- 73
2019-05-19 01:00:00 6.4 6 Oeste 24 Norte 0 -- -- 72
2019-05-19 00:00:00 8.3 12 Norte 22 Norte 0 -- -- 64
2019-05-18 23:00:00 9.5 12 Norte 25 Norte 0 -- -- 59
2019-05-18 22:00:00 10.6 13 Norte 27 Norte 0 -- -- 54
2019-05-18 21:00:00 13.1 12 Norte 33 Noroeste 0 -- -- 46
2019-05-18 20:00:00 13.9 21 Norte 34 Norte 0 -- -- 42
2019-05-18 19:00:00 13.9 14 Noroeste 28 Noroeste 0 -- -- 41
2019-05-18 18:00:00 14.9 12 Norte 33 Noroeste 0 -- -- 38
2019-05-18 17:00:00 15.5 17 Norte 33 Norte 0 -- -- 37
2019-05-18 16:00:00 14.9 19 Noroeste 37 Noroeste 0 -- -- 40
2019-05-18 15:00:00 15.4 18 Norte 42 Noroeste 0 -- -- 39
2019-05-18 14:00:00 15.4 21 Noroeste 39 Noroeste 0 -- -- 41
2019-05-18 13:00:00 14.6 21 Noroeste 39 Norte 0 -- -- 41
2019-05-18 12:00:00 13.1 21 Noroeste 34 Noroeste 0 -- -- 47
2019-05-18 11:00:00 10.9 19 Noroeste 34 Noroeste 0 -- -- 55
2019-05-18 10:00:00 8.8 20 Noroeste 32 Noroeste 0 -- -- 62
2019-05-18 09:00:00 5.4 9 Noroeste 14 Oeste 0 -- -- 76
2019-05-18 08:00:00 2.6 0 Calma 7 Oeste 0 -- -- 85
2019-05-18 07:00:00 -0.1 3 Oeste 6 Oeste 0 -- -- 86
2019-05-18 06:00:00 0.9 5 Oeste 10 Oeste 0 -- -- 83
2019-05-18 05:00:00 3.4 3 Oeste 19 Noroeste 0 -- -- 76
2019-05-18 04:00:00 3.7 8 Oeste 14 Noroeste 0 -- -- 77
2019-05-18 03:00:00 4.7 6 Noroeste 19 Noroeste 0 -- -- 76
2019-05-18 02:00:00 5.6 13 Noroeste 22 Noroeste 0 -- -- 73
2019-05-18 01:00:00 5.8 4 Oeste 13 Noroeste 0 -- -- 74
2019-05-18 00:00:00 7 10 Noroeste 24 Noroeste 0 -- -- 67
2019-05-17 23:00:00 7.8 16 Noroeste 30 Noroeste 0 -- -- 65
2019-05-17 22:00:00 9.7 17 Noroeste 39 Norte 0 -- -- 57
2019-05-17 21:00:00 12.2 24 Norte 42 Noroeste 0 -- -- 46
2019-05-17 20:00:00 14.3 24 Noroeste 39 Noroeste 0 -- -- 45
2019-05-17 19:00:00 15.7 27 Noroeste 45 Norte 0 -- -- 38
2019-05-17 18:00:00 16.3 24 Noroeste 39 Noroeste 0 -- -- 36
2019-05-17 17:00:00 16 23 Noroeste 41 Noroeste 0 -- -- 41
2019-05-17 16:00:00 15.6 22 Noroeste 40 Noroeste 0 -- -- 42
2019-05-17 15:00:00 15.8 22 Norte 38 Norte 0 -- -- 43
2019-05-17 14:00:00 14.2 21 Noroeste 36 Noroeste 0 -- -- 46
2019-05-17 13:00:00 13.5 25 Noroeste 40 Noroeste 0 -- -- 50
2019-05-17 12:00:00 12.6 16 Noroeste 34 Noroeste 0 -- -- 52
2019-05-17 11:00:00 11.3 21 Noroeste 39 Norte 0 -- -- 57
2019-05-17 10:00:00 11.7 30 Noroeste 42 Noroeste 0 -- -- 58
2019-05-17 09:00:00 9.7 21 Noroeste 31 Oeste 0 -- -- 71
2019-05-17 08:00:00 7.8 14 Noroeste 25 Noroeste 0 -- -- 78
2019-05-17 07:00:00 7 18 Noroeste 31 Noroeste 0 -- -- 80
2019-05-17 06:00:00 7.9 18 Noroeste 27 Oeste 0 -- -- 78
2019-05-17 05:00:00 7.6 15 Noroeste 26 Noroeste 0 -- -- 81
2019-05-17 04:00:00 6.9 13 Oeste 22 Oeste 0 -- -- 86
2019-05-17 03:00:00 6 12 Noroeste 22 Noroeste 0 -- -- 84
2019-05-17 02:00:00 6.9 15 Noroeste 24 Noroeste 0 -- -- 81
2019-05-17 01:00:00 8.1 14 Noroeste 22 Noroeste 0 -- -- 79
2019-05-17 00:00:00 9.2 12 Noroeste 24 Noroeste 0 -- -- 83
2019-05-16 23:00:00 9.6 14 Noroeste 28 Norte 0 -- -- 86
2019-05-16 22:00:00 9.5 21 Noroeste 50 Noroeste 0.4 -- -- 84
2019-05-16 21:00:00 11.3 34 Noroeste 59 Noroeste 0 -- -- 72
2019-05-16 20:00:00 16.2 24 Noroeste 44 Noroeste 0 -- -- 54
2019-05-16 19:00:00 18.2 22 Oeste 35 Oeste 0 -- -- 55
2019-05-16 18:00:00 20.2 6 Noroeste 22 Norte 0 -- -- 46
2019-05-16 17:00:00 19.7 8 Norte 27 Norte 0 -- -- 45
2019-05-16 16:00:00 20.3 18 Norte 36 Norte 0 -- -- 39
2019-05-16 15:00:00 23.5 19 Noroeste 40 Oeste 0 -- -- 28
2019-05-16 14:00:00 24.4 10 Oeste 26 Oeste 0 -- -- 31
2019-05-16 13:00:00 22.9 10 Oeste 18 Oeste 0 -- -- 34
2019-05-16 12:00:00 21 10 Oeste 18 Oeste 0 -- -- 40
2019-05-16 11:00:00 19.2 7 Oeste 15 Oeste 0 -- -- 46
2019-05-16 10:00:00 17.1 3 Sudoeste 8 Nordeste 0 -- -- 45
2019-05-16 09:00:00 13.6 6 Nordeste 10 Nordeste 0 -- -- 55
2019-05-16 08:00:00 10.2 4 Nordeste 15 Este 0 -- -- 65
2019-05-16 07:00:00 10 6 Nordeste 12 Nordeste 0 -- -- 66
2019-05-16 06:00:00 9.2 3 Sur 12 Nordeste 0 -- -- 72
2019-05-16 05:00:00 9.8 8 Nordeste 12 Nordeste 0 -- -- 70
2019-05-16 04:00:00 10.8 4 Este 13 Nordeste 0 -- -- 67
2019-05-16 03:00:00 13.6 11 Nordeste 17 Nordeste 0 -- -- 56
2019-05-16 02:00:00 14 8 Nordeste 16 Norte 0 -- -- 55
2019-05-16 01:00:00 16.1 4 Nordeste 13 Nordeste 0 -- -- 46
2019-05-16 00:00:00 16.7 3 Sudoeste 9 Noroeste 0 -- -- 47
2019-05-15 23:00:00 17.9 3 Oeste 20 Sudeste 0 -- -- 46
2019-05-15 22:00:00 22.8 10 Sudeste 24 Sudeste 0 -- -- 29
2019-05-15 21:00:00 24.9 2 Sudeste 5 Sur 0 -- -- 37
2019-05-15 20:00:00 28.9 3 Sudoeste 8 Sudeste 0 -- -- 22
2019-05-15 19:00:00 29 4 Este 14 Sur 0 -- -- 19
2019-05-15 18:00:00 29.9 4 Nordeste 17 Sudeste 0 -- -- 19
2019-05-15 17:00:00 29 5 Noroeste 13 Nordeste 0 -- -- 18
2019-05-15 16:00:00 28.5 7 Norte 13 Norte 0 -- -- 21
2019-05-15 15:00:00 28.1 9 Norte 18 Norte 0 -- -- 18
2019-05-15 14:00:00 27.5 6 Nordeste 14 Este 0 -- -- 19
2019-05-15 13:00:00 25.2 7 Nordeste 18 Este 0 -- -- 23
2019-05-15 12:00:00 22.7 8 Este 15 Este 0 -- -- 24
2019-05-15 11:00:00 19.8 6 Nordeste 14 Nordeste 0 -- -- 30
2019-05-15 10:00:00 16.5 3 Noroeste 6 Este 0 -- -- 39
2019-05-15 09:00:00 12.4 2 Este 7 Este 0 -- -- 63
2019-05-15 08:00:00 7.9 4 Este 15 Nordeste 0 -- -- 76
2019-05-15 07:00:00 5.5 8 Nordeste 13 Nordeste 0 -- -- 84
2019-05-15 06:00:00 6.2 8 Este 13 Este 0 -- -- 80
2019-05-15 05:00:00 7.8 10 Nordeste 16 Nordeste 0 -- -- 76
2019-05-15 04:00:00 8.2 7 Este 12 Nordeste 0 -- -- 73
2019-05-15 03:00:00 10 4 Este 9 Nordeste 0 -- -- 65
2019-05-15 02:00:00 13.9 5 Nordeste 16 Nordeste 0 -- -- 51
2019-05-15 01:00:00 12.1 3 Sudeste 14 Nordeste 0 -- -- 52
2019-05-15 00:00:00 10.6 0 Calma 4 Este 0 -- -- 65
2019-05-14 23:00:00 13 0 Calma 3 Noroeste 0 -- -- 54
2019-05-14 22:00:00 18.2 0 Calma 5 Este 0 -- -- 40
2019-05-14 21:00:00 25.6 4 Este 9 Este 0 -- -- 21
2019-05-14 20:00:00 27.6 7 Nordeste 10 Este 0 -- -- 15
2019-05-14 19:00:00 28.5 5 Nordeste 14 Norte 0 -- -- 15
2019-05-14 18:00:00 28.7 6 Norte 19 Este 0 -- -- 17
2019-05-14 17:00:00 28.1 12 Norte 20 Norte 0 -- -- 15
2019-05-14 16:00:00 26.9 6 Nordeste 20 Noroeste 0 -- -- 17
2019-05-14 15:00:00 25.5 6 Norte 15 Norte 0 -- -- 20
2019-05-14 14:00:00 23.6 7 Nordeste 17 Nordeste 0 -- -- 24
2019-05-14 13:00:00 21.1 7 Nordeste 16 Este 0 -- -- 26
2019-05-14 12:00:00 18.6 9 Nordeste 17 Este 0 -- -- 32
2019-05-14 11:00:00 15.7 10 Nordeste 22 Nordeste 0 -- -- 41
2019-05-14 10:00:00 12.7 11 Nordeste 24 Nordeste 0 -- -- 48
2019-05-14 09:00:00 9.6 11 Nordeste 20 Nordeste 0 -- -- 56
2019-05-14 08:00:00 5.9 13 Nordeste 22 Nordeste 0 -- -- 66
2019-05-14 07:00:00 4.1 14 Nordeste 22 Nordeste 0 -- -- 71
2019-05-14 06:00:00 5.5 9 Norte 22 Nordeste 0 -- -- 63
2019-05-14 05:00:00 6.3 12 Nordeste 24 Este 0 -- -- 59
2019-05-14 04:00:00 7.1 13 Nordeste 26 Este 0 -- -- 56
2019-05-14 03:00:00 8.4 10 Nordeste 32 Este 0 -- -- 51
2019-05-14 02:00:00 10 17 Este 39 Este 0 -- -- 45
2019-05-14 01:00:00 10.6 15 Nordeste 29 Este 0 -- -- 38
2019-05-14 00:00:00 12.3 14 Este 30 Este 0 -- -- 33
2019-05-13 23:00:00 14.4 16 Este 39 Este 0 -- -- 23
2019-05-13 22:00:00 16 17 Este 37 Este 0 -- -- 22
2019-05-13 21:00:00 19.4 17 Este 39 Nordeste 0 -- -- 23
2019-05-13 20:00:00 22 19 Este 42 Nordeste 0 -- -- 20
2019-05-13 19:00:00 23.7 21 Este 46 Este 0 -- -- 19
2019-05-13 18:00:00 24.6 21 Este 39 Este 0 -- -- 19
2019-05-13 17:00:00 24.5 22 Este 40 Este 0 -- -- 20
2019-05-13 16:00:00 24.4 19 Nordeste 39 Este 0 -- -- 19
2019-05-13 15:00:00 23.3 19 Este 40 Nordeste 0 -- -- 18
2019-05-13 14:00:00 21.9 20 Este 47 Este 0 -- -- 21
2019-05-13 13:00:00 20.2 21 Este 40 Nordeste 0 -- -- 24
2019-05-13 12:00:00 17.9 23 Este 42 Este 0 -- -- 30
2019-05-13 11:00:00 15.6 22 Este 41 Nordeste 0 -- -- 36
2019-05-13 10:00:00 12.9 17 Este 35 Nordeste 0 -- -- 51
2019-05-13 09:00:00 9.7 12 Este 30 Nordeste 0 -- -- 67
2019-05-13 08:00:00 7 10 Nordeste 21 Este 0 -- -- 76
2019-05-13 07:00:00 5.3 11 Nordeste 26 Este 0 -- -- 80
2019-05-13 06:00:00 5.8 12 Nordeste 26 Este 0 -- -- 80
2019-05-13 05:00:00 6.2 7 Nordeste 25 Nordeste 0 -- -- 81
2019-05-13 04:00:00 7.3 13 Nordeste 39 Nordeste 0 -- -- 79
2019-05-13 03:00:00 8.3 14 Nordeste 33 Nordeste 0 -- -- 73
2019-05-13 02:00:00 9.6 17 Nordeste 35 Este 0 -- -- 67
2019-05-13 01:00:00 10.5 12 Nordeste 31 Este 0 -- -- 61
2019-05-13 00:00:00 11.7 7 Nordeste 21 Este 0 -- -- 53
2019-05-12 23:00:00 13.5 8 Nordeste 27 Este 0 -- -- 50
2019-05-12 22:00:00 16.9 15 Este 31 Este 0 -- -- 39
2019-05-12 21:00:00 19.4 9 Este 34 Este 0 -- -- 34
2019-05-12 20:00:00 21.4 17 Este 30 Este 0 -- -- 30
2019-05-12 19:00:00 22.2 17 Este 36 Sudeste 0 -- -- 23
2019-05-12 18:00:00 22.8 15 Este 32 Este 0 -- -- 19
2019-05-12 17:00:00 23.2 17 Este 35 Este 0 -- -- 15
2019-05-12 16:00:00 22.2 17 Este 34 Este 0 -- -- 16
2019-05-12 15:00:00 21.5 15 Este 32 Nordeste 0 -- -- 20
2019-05-12 14:00:00 19.9 14 Este 30 Este 0 -- -- 25
2019-05-12 13:00:00 18.3 17 Este 33 Este 0 -- -- 28
2019-05-12 12:00:00 16.4 18 Este 29 Este 0 -- -- 30
2019-05-12 11:00:00 13.9 16 Este 30 Este 0 -- -- 42
2019-05-12 10:00:00 10.9 13 Este 27 Nordeste 0 -- -- 59
2019-05-12 09:00:00 7.3 12 Nordeste 23 Nordeste 0 -- -- 77
2019-05-12 08:00:00 4.7 13 Nordeste 23 Norte 0 -- -- 88
2019-05-12 07:00:00 4 7 Nordeste 16 Nordeste 0 -- -- 89
2019-05-12 06:00:00 3.9 9 Nordeste 17 Nordeste 0 -- -- 87
2019-05-12 05:00:00 4.7 7 Nordeste 15 Norte 0 -- -- 84
2019-05-12 04:00:00 6.3 6 Nordeste 20 Nordeste 0 -- -- 78
2019-05-12 03:00:00 8.5 9 Nordeste 29 Este 0 -- -- 70
2019-05-12 02:00:00 9.9 14 Este 32 Este 0 -- -- 66
2019-05-12 01:00:00 10.6 13 Este 31 Este 0 -- -- 61
2019-05-12 00:00:00 11.5 10 Este 25 Este 0 -- -- 53
2019-05-11 23:00:00 13.4 15 Este 30 Nordeste 0 -- -- 48
2019-05-11 22:00:00 15.5 12 Sudeste 26 Este 0 -- -- 47
2019-05-11 21:00:00 18.5 12 Sudeste 26 Sudeste 0 -- -- 41
2019-05-11 20:00:00 20.4 9 Este 19 Este 0 -- -- 34
2019-05-11 19:00:00 21.1 7 Este 25 Este 0 -- -- 33
2019-05-11 18:00:00 21.5 9 Nordeste 29 Este 0 -- -- 33
2019-05-11 17:00:00 21.6 10 Nordeste 27 Este 0 -- -- 35
2019-05-11 16:00:00 20.8 12 Nordeste 23 Nordeste 0 -- -- 34
2019-05-11 15:00:00 20.3 10 Este 22 Este 0 -- -- 41
2019-05-11 14:00:00 19 12 Este 24 Este 0 -- -- 43
2019-05-11 13:00:00 17.4 11 Este 23 Sudeste 0 -- -- 52
2019-05-11 12:00:00 15.2 14 Este 25 Este 0 -- -- 64
2019-05-11 11:00:00 14.5 11 Este 18 Este 0 -- -- 69
2019-05-11 10:00:00 12.1 9 Este 14 Este 0 -- -- 78
2019-05-11 09:00:00 8.9 3 Nordeste 8 Nordeste 0 -- -- 88
2019-05-11 08:00:00 3.5 0 Calma 4 Sur 0 -- -- 93
2019-05-11 07:00:00 2.7 0 Calma 6 Sur 0 -- -- 90
2019-05-11 06:00:00 4.1 0 Calma 3 Noroeste 0 -- -- 90
2019-05-11 05:00:00 4.9 3 Oeste 6 Oeste 0 -- -- 90
2019-05-11 04:00:00 5.3 0 Calma 5 Sur 0 -- -- 87
2019-05-11 03:00:00 6.7 0 Calma 6 Oeste 0 -- -- 85
2019-05-11 02:00:00 8 2 Este 8 Sur 0 -- -- 84
2019-05-11 01:00:00 8.4 5 Noroeste 11 Oeste 0 -- -- 78
2019-05-11 00:00:00 9.9 7 Oeste 14 Noroeste 0 -- -- 75
2019-05-10 23:00:00 11.6 0 Calma 13 Oeste 0 -- -- 66
2019-05-10 22:00:00 14.5 8 Oeste 24 Oeste 0 -- -- 57
2019-05-10 21:00:00 18.2 15 Oeste 35 Oeste 0 -- -- 45
2019-05-10 20:00:00 20.4 22 Oeste 38 Oeste 0 -- -- 40
2019-05-10 19:00:00 21.3 24 Oeste 42 Oeste 0 -- -- 38
2019-05-10 18:00:00 22.3 27 Oeste 50 Oeste 0 -- -- 39
2019-05-10 17:00:00 21.4 27 Oeste 45 Oeste 0 -- -- 44
2019-05-10 16:00:00 22.7 27 Oeste 49 Noroeste 0 -- -- 46
2019-05-10 15:00:00 20.7 24 Oeste 48 Sudoeste 0 -- -- 52
2019-05-10 14:00:00 20.5 24 Oeste 41 Oeste 0 -- -- 57
2019-05-10 13:00:00 18.8 21 Oeste 45 Oeste 0 -- -- 67
2019-05-10 12:00:00 19.1 24 Oeste 40 Oeste 0 -- -- 67
2019-05-10 11:00:00 17.1 23 Oeste 44 Oeste 0 -- -- 76
2019-05-10 10:00:00 15.3 21 Oeste 35 Oeste 0 -- -- 87
2019-05-10 09:00:00 14.4 20 Oeste 35 Oeste 0.4 -- -- 90
2019-05-10 08:00:00 14.2 16 Sudoeste 30 Oeste 0 -- -- 89
2019-05-10 07:00:00 14.3 17 Oeste 32 Oeste 0 -- -- 88
2019-05-10 06:00:00 14.4 20 Oeste 33 Oeste 0 -- -- 87
2019-05-10 05:00:00 14.5 19 Oeste 36 Oeste 0 -- -- 86
2019-05-10 04:00:00 14.1 19 Oeste 33 Oeste 0 -- -- 89
2019-05-10 03:00:00 14.4 21 Oeste 36 Oeste 0 -- -- 86
2019-05-10 02:00:00 14.3 23 Oeste 35 Sudoeste 0 -- -- 87
2019-05-10 01:00:00 14.6 19 Oeste 39 Oeste 0 -- -- 85
2019-05-10 00:00:00 15 20 Oeste 35 Sudoeste 0 -- -- 84
2019-05-09 23:00:00 15.2 17 Oeste 33 Oeste 0 -- -- 82
2019-05-09 22:00:00 15.6 20 Oeste 50 Oeste 0 -- -- 80
2019-05-09 21:00:00 16.7 31 Oeste 52 Oeste 0 -- -- 75
2019-05-09 20:00:00 16.5 29 Oeste 51 Sudoeste 0 -- -- 77
2019-05-09 19:00:00 16.5 28 Oeste 46 Oeste 0 -- -- 76
2019-05-09 18:00:00 16.5 26 Oeste 49 Oeste 0 -- -- 74
2019-05-09 17:00:00 16.4 30 Oeste 59 Oeste 0 -- -- 69
2019-05-09 16:00:00 15.7 19 Oeste 39 Oeste 0 -- -- 66
2019-05-09 15:00:00 16.6 22 Oeste 39 Oeste 0 -- -- 56
2019-05-09 14:00:00 15.7 18 Sudoeste 33 Sudoeste 0 -- -- 56
2019-05-09 13:00:00 12.6 14 Oeste 21 Sudoeste 0 -- -- 69
2019-05-09 12:00:00 11.1 14 Sudoeste 28 Oeste 0 -- -- 72
2019-05-09 11:00:00 11 17 Oeste 29 Oeste 0 -- -- 73
2019-05-09 10:00:00 10.2 15 Oeste 30 Oeste 0 -- -- 76
2019-05-09 09:00:00 8.2 15 Oeste 26 Sudoeste 0 -- -- 83
2019-05-09 08:00:00 6.3 11 Sudoeste 19 Sudoeste 0 -- -- 87
2019-05-09 07:00:00 5.3 5 Oeste 10 Sudoeste 0 -- -- 88
2019-05-09 06:00:00 5.1 4 Sudoeste 19 Sudoeste 0 -- -- 86
2019-05-09 05:00:00 5.5 12 Oeste 23 Oeste 0 -- -- 84
2019-05-09 04:00:00 5.3 7 Sudoeste 17 Oeste 0 -- -- 82
2019-05-09 03:00:00 6.1 8 Oeste 32 Oeste 0 -- -- 78
2019-05-09 02:00:00 7 22 Oeste 33 Oeste 0 -- -- 76
2019-05-09 01:00:00 7.9 17 Sudoeste 29 Oeste 0 -- -- 73
2019-05-09 00:00:00 9 18 Oeste 37 Oeste 0 -- -- 66
2019-05-08 23:00:00 9.4 21 Oeste 41 Oeste 0 -- -- 64
2019-05-08 22:00:00 10.9 23 Oeste 44 Oeste 0 -- -- 55
2019-05-08 21:00:00 12.5 29 Oeste 52 Oeste 0 -- -- 50
2019-05-08 20:00:00 13.9 31 Oeste 59 Oeste 0 -- -- 47
2019-05-08 19:00:00 15.3 36 Oeste 72 Oeste 0 -- -- 40
2019-05-08 18:00:00 16.2 33 Oeste 59 Oeste 0 -- -- 41
2019-05-08 17:00:00 16.9 35 Oeste 71 Noroeste 0 -- -- 40
2019-05-08 16:00:00 17 45 Oeste 72 Oeste 0 -- -- 35
2019-05-08 15:00:00 16.6 44 Oeste 65 Oeste 0 -- -- 45
2019-05-08 14:00:00 16.1 38 Oeste 67 Oeste 0 -- -- 51
2019-05-08 13:00:00 15.4 39 Oeste 61 Oeste 0 -- -- 59
2019-05-08 12:00:00 14.1 36 Oeste 57 Oeste 0 -- -- 69
2019-05-08 11:00:00 13.6 34 Oeste 69 Oeste 0.4 -- -- 82
2019-05-08 10:00:00 12.7 29 Oeste 44 Oeste 1.4 -- -- 91
2019-05-08 09:00:00 12.9 25 Oeste 47 Oeste 0 -- -- 87
2019-05-08 08:00:00 12.3 26 Oeste 44 Oeste 0 -- -- 87
2019-05-08 07:00:00 12.4 27 Oeste 50 Oeste 0 -- -- 88
2019-05-08 06:00:00 12.7 28 Sudoeste 48 Sudoeste 0 -- -- 88
2019-05-08 05:00:00 12.7 26 Oeste 44 Sudoeste 0 -- -- 89
2019-05-08 04:00:00 12.3 18 Sudoeste 32 Sudoeste 0.2 -- -- 89
2019-05-08 03:00:00 11.9 10 Sudoeste 33 Oeste 0 -- -- 92
2019-05-08 02:00:00 12.1 14 Sudoeste 36 Sudoeste 0 -- -- 90
2019-05-08 01:00:00 12.2 15 Oeste 25 Sudoeste 0 -- -- 87
2019-05-08 00:00:00 11.8 15 Sudoeste 30 Sudoeste 0 -- -- 85
2019-05-07 23:00:00 12.6 19 Oeste 33 Sudoeste 0 -- -- 86
2019-05-07 22:00:00 13.8 19 Sudoeste 36 Sudoeste 2.8 -- -- 90
2019-05-07 21:00:00 15.2 17 Sudoeste 24 Oeste 0 -- -- 82
2019-05-07 20:00:00 16.1 16 Sudoeste 30 Oeste 0 -- -- 73
2019-05-07 19:00:00 16.7 20 Oeste 38 Oeste 0 -- -- 69
2019-05-07 18:00:00 17.5 23 Oeste 39 Oeste 0 -- -- 63
2019-05-07 17:00:00 18 21 Oeste 47 Oeste 0 -- -- 58
2019-05-07 16:00:00 18.6 27 Oeste 45 Oeste 0 -- -- 56
2019-05-07 15:00:00 18.8 23 Oeste 41 Oeste 0 -- -- 57
2019-05-07 14:00:00 18.6 26 Oeste 40 Oeste 0 -- -- 55
2019-05-07 13:00:00 18.1 25 Oeste 42 Oeste 0 -- -- 59
2019-05-07 12:00:00 16.7 22 Oeste 38 Oeste 0 -- -- 63
2019-05-07 11:00:00 15.8 18 Oeste 28 Oeste 0 -- -- 69
2019-05-07 10:00:00 13.2 15 Oeste 29 Oeste 0 -- -- 76
2019-05-07 09:00:00 12 12 Sudoeste 19 Oeste 0 -- -- 81
2019-05-07 08:00:00 8.5 8 Sudoeste 15 Sudoeste 0 -- -- 89
2019-05-07 07:00:00 8.4 6 Sudoeste 13 Sudoeste 0 -- -- 87
2019-05-07 06:00:00 6.6 4 Sudoeste 9 Oeste 0 -- -- 84
2019-05-07 05:00:00 6.8 3 Sudoeste 8 Oeste 0 -- -- 82
2019-05-07 04:00:00 7.3 5 Oeste 7 Noroeste 0 -- -- 76
2019-05-07 03:00:00 8.4 3 Oeste 10 Oeste 0 -- -- 74
2019-05-07 02:00:00 9.4 4 Oeste 8 Oeste 0 -- -- 70
2019-05-07 01:00:00 11.3 4 Oeste 10 Sudoeste 0 -- -- 68
2019-05-07 00:00:00 11.9 4 Noroeste 8 Oeste 0 -- -- 62
2019-05-06 23:00:00 15 4 Sudoeste 15 Oeste 0 -- -- 52
2019-05-06 22:00:00 17.9 13 Oeste 22 Oeste 0 -- -- 41
2019-05-06 21:00:00 19.2 13 Oeste 25 Oeste 0 -- -- 35
2019-05-06 20:00:00 20.9 18 Oeste 31 Oeste 0 -- -- 38
2019-05-06 19:00:00 22.7 18 Oeste 34 Oeste 0 -- -- 37
2019-05-06 18:00:00 23.2 17 Oeste 32 Sudoeste 0 -- -- 35
2019-05-06 17:00:00 23.6 14 Oeste 27 Oeste 0 -- -- 39
2019-05-06 16:00:00 22.7 15 Oeste 27 Noroeste 0 -- -- 40
2019-05-06 15:00:00 21.7 13 Oeste 22 Noroeste 0 -- -- 39
2019-05-06 14:00:00 20.3 10 Oeste 24 Oeste 0 -- -- 38
2019-05-06 13:00:00 19 5 Oeste 12 Noroeste 0 -- -- 38
2019-05-06 12:00:00 16.3 4 Nordeste 11 Norte 0 -- -- 34
2019-05-06 11:00:00 13.3 6 Norte 12 Norte 0 -- -- 45
2019-05-06 10:00:00 10 6 Nordeste 13 Nordeste 0 -- -- 52
2019-05-06 09:00:00 6.2 5 Nordeste 10 Este 0 -- -- 67
2019-05-06 08:00:00 2 6 Este 9 Este 0 -- -- 80
2019-05-06 07:00:00 0.8 4 Sudeste 10 Este 0 -- -- 78
2019-05-06 06:00:00 1.7 5 Nordeste 10 Nordeste 0 -- -- 78
2019-05-06 05:00:00 2.1 5 Este 12 Nordeste 0 -- -- 78
2019-05-06 04:00:00 2.7 7 Nordeste 12 Nordeste 0 -- -- 76
2019-05-06 03:00:00 3.7 4 Sudeste 10 Este 0 -- -- 70
2019-05-06 02:00:00 5 6 Nordeste 10 Nordeste 0 -- -- 65
2019-05-06 01:00:00 7.6 4 Sur 10 Este 0 -- -- 51
2019-05-06 00:00:00 7.4 6 Sur 17 Sur 0 -- -- 52
2019-05-05 23:00:00 7.2 0 Calma 7 Sur 0 -- -- 54
2019-05-05 22:00:00 9.7 4 Sudoeste 8 Este 0 -- -- 48
2019-05-05 21:00:00 13.3 5 Este 15 Este 0 -- -- 31
2019-05-05 20:00:00 15.8 9 Nordeste 18 Este 0 -- -- 24
2019-05-05 19:00:00 16.6 10 Nordeste 21 Nordeste 0 -- -- 25
2019-05-05 18:00:00 17 11 Este 23 Este 0 -- -- 23
2019-05-05 17:00:00 16.6 11 Este 23 Este 0 -- -- 23
2019-05-05 16:00:00 16 12 Este 27 Sudeste 0 -- -- 25
2019-05-05 15:00:00 15 13 Este 29 Este 0 -- -- 29
2019-05-05 14:00:00 13.5 13 Este 32 Este 0 -- -- 29
2019-05-05 13:00:00 12.2 16 Este 31 Este 0 -- -- 35
2019-05-05 12:00:00 10.7 18 Este 36 Este 0 -- -- 41
2019-05-05 11:00:00 9.1 18 Este 34 Este 0 -- -- 48
2019-05-05 10:00:00 7.7 19 Este 37 Este 0 -- -- 59
2019-05-05 09:00:00 6.5 17 Este 34 Este 0 -- -- 64
2019-05-05 08:00:00 4.8 13 Este 27 Este 0 -- -- 73
2019-05-05 07:00:00 4.4 13 Este 27 Este 0 -- -- 79
2019-05-05 06:00:00 4.9 14 Este 32 Este 0 -- -- 79
2019-05-05 05:00:00 5.3 12 Este 33 Este 0 -- -- 77
2019-05-05 04:00:00 6.1 14 Este 39 Este 0 -- -- 73
2019-05-05 03:00:00 6.8 21 Este 37 Nordeste 0 -- -- 71
2019-05-05 02:00:00 7.4 24 Este 39 Este 0 -- -- 76
2019-05-05 01:00:00 8.1 22 Este 40 Este 0 -- -- 74
2019-05-05 00:00:00 8.8 21 Este 36 Este 0 -- -- 72
2019-05-04 23:00:00 9.8 19 Este 43 Este 0 -- -- 68
2019-05-04 22:00:00 11.3 29 Este 50 Este 0 -- -- 64
2019-05-04 21:00:00 18.8 4 Sudeste 10 Sudoeste 0 -- -- 39
2019-05-04 20:00:00 20.5 4 Sudoeste 12 Sur 0 -- -- 34
2019-05-04 19:00:00 21 6 Oeste 13 Sudoeste 0 -- -- 33
2019-05-04 18:00:00 20.4 5 Nordeste 19 Este 0 -- -- 31
2019-05-04 17:00:00 20.1 4 Noroeste 26 Norte 0 -- -- 30
2019-05-04 16:00:00 18.7 9 Norte 22 Norte 0 -- -- 34
2019-05-04 15:00:00 17.8 11 Noroeste 20 Noroeste 0 -- -- 46
2019-05-04 14:00:00 16.2 8 Noroeste 18 Norte 0 -- -- 49
2019-05-04 13:00:00 14.4 8 Norte 16 Norte 0 -- -- 52
2019-05-04 12:00:00 12.7 6 Norte 15 Norte 0 -- -- 59
2019-05-04 11:00:00 10.9 3 Sudoeste 8 Norte 0 -- -- 65
2019-05-04 10:00:00 8.2 0 Calma 7 Este 0 -- -- 73
2019-05-04 09:00:00 5.8 0 Calma 5 Nordeste 0 -- -- 80
2019-05-04 08:00:00 1.9 5 Este 9 Nordeste 0 -- -- 91
2019-05-04 07:00:00 1 4 Este 8 Este 0 -- -- 90
2019-05-04 06:00:00 1.1 3 Nordeste 4 Este 0 -- -- 89
2019-05-04 05:00:00 2.1 2 Sudoeste 10 Nordeste 0 -- -- 88
2019-05-04 04:00:00 2.5 6 Nordeste 10 Nordeste 0 -- -- 87
2019-05-04 03:00:00 3.9 3 Este 10 Nordeste 0 -- -- 82
2019-05-04 02:00:00 5 4 Este 12 Nordeste 0 -- -- 82
2019-05-04 01:00:00 5.6 4 Este 12 Este 0 -- -- 79
2019-05-04 00:00:00 7.1 6 Nordeste 25 Este 0 -- -- 73
2019-05-03 23:00:00 9.1 17 Este 32 Este 0 -- -- 66
2019-05-03 22:00:00 10.5 13 Este 31 Sudeste 0 -- -- 58
2019-05-03 21:00:00 12.5 20 Este 35 Este 0 -- -- 54
2019-05-03 20:00:00 15 19 Este 44 Este 0 -- -- 48
2019-05-03 19:00:00 17.1 11 Este 23 Este 0 -- -- 43
2019-05-03 18:00:00 17 10 Este 27 Norte 0 -- -- 44
2019-05-03 17:00:00 16.4 9 Nordeste 22 Este 0 -- -- 44
2019-05-03 16:00:00 16.5 9 Norte 28 Este 0 -- -- 45
2019-05-03 15:00:00 15.7 10 Este 26 Este 0 -- -- 46
2019-05-03 14:00:00 14.4 12 Este 31 Este 0 -- -- 52
2019-05-03 13:00:00 13.4 13 Este 28 Este 0 -- -- 54
2019-05-03 12:00:00 12.4 12 Este 27 Este 0 -- -- 55
2019-05-03 11:00:00 10.6 14 Este 35 Este 0 -- -- 62
2019-05-03 10:00:00 7.8 22 Este 36 Este 0 -- -- 70
2019-05-03 09:00:00 6.5 12 Nordeste 23 Nordeste 0 -- -- 75
2019-05-03 08:00:00 3.2 6 Nordeste 15 Este 0 -- -- 86
2019-05-03 07:00:00 2.4 9 Nordeste 16 Nordeste 0 -- -- 88
2019-05-03 06:00:00 3.3 6 Nordeste 18 Nordeste 0 -- -- 84
2019-05-03 05:00:00 4 9 Nordeste 17 Nordeste 0 -- -- 84
2019-05-03 04:00:00 4.4 6 Nordeste 14 Nordeste 0 -- -- 82
2019-05-03 03:00:00 5.5 6 Nordeste 27 Nordeste 0 -- -- 78
2019-05-03 02:00:00 6.4 14 Este 30 Nordeste 0 -- -- 76
2019-05-03 01:00:00 6.9 10 Nordeste 33 Este 0 -- -- 74
2019-05-03 00:00:00 7.8 12 Nordeste 34 Este 0 -- -- 72
2019-05-02 23:00:00 9 17 Este 42 Este 0 -- -- 67
2019-05-02 22:00:00 10.9 23 Este 40 Este 0 -- -- 63
2019-05-02 21:00:00 14.7 16 Este 32 Este 0 -- -- 50
2019-05-02 20:00:00 17.1 13 Este 27 Nordeste 0 -- -- 39
2019-05-02 19:00:00 18.8 14 Este 31 Nordeste 0 -- -- 35
2019-05-02 18:00:00 19.2 14 Nordeste 28 Este 0 -- -- 38
2019-05-02 17:00:00 19.2 14 Este 33 Nordeste 0 -- -- 40
2019-05-02 16:00:00 18.6 19 Este 35 Este 0 -- -- 41
2019-05-02 15:00:00 17.9 18 Este 34 Este 0 -- -- 46
2019-05-02 14:00:00 16.6 19 Este 37 Este 0 -- -- 47
2019-05-02 13:00:00 15.2 22 Este 42 Este 0 -- -- 49
2019-05-02 12:00:00 13.6 21 Este 38 Este 0 -- -- 55
2019-05-02 11:00:00 11.5 23 Nordeste 41 Este 0 -- -- 61
2019-05-02 10:00:00 9.3 23 Este 50 Nordeste 0 -- -- 65
2019-05-02 09:00:00 7.1 21 Este 42 Nordeste 0 -- -- 71
2019-05-02 08:00:00 5.1 23 Nordeste 38 Nordeste 0 -- -- 80
2019-05-02 07:00:00 5 21 Nordeste 43 Nordeste 0 -- -- 80
2019-05-02 06:00:00 5.2 17 Nordeste 34 Este 0 -- -- 78
2019-05-02 05:00:00 5.7 17 Este 39 Este 0 -- -- 77
2019-05-02 04:00:00 6.1 18 Nordeste 36 Nordeste 0 -- -- 77
2019-05-02 03:00:00 6.7 17 Nordeste 39 Este 0 -- -- 76
2019-05-02 02:00:00 7 17 Nordeste 39 Este 0 -- -- 75
2019-05-02 01:00:00 7.8 21 Nordeste 37 Este 0 -- -- 80
2019-05-02 00:00:00 8.7 19 Nordeste 34 Nordeste 0 -- -- 80
2019-05-01 23:00:00 10.2 17 Este 41 Este 0 -- -- 73
2019-05-01 22:00:00 11.9 19 Nordeste 45 Nordeste 0 -- -- 66
2019-05-01 21:00:00 14.3 27 Este 48 Este 0 -- -- 59
2019-05-01 20:00:00 17.7 24 Este 50 Este 0 -- -- 53
2019-05-01 19:00:00 23.6 9 Noroeste 25 Noroeste 0 -- -- 33
2019-05-01 18:00:00 24.6 10 Noroeste 18 Norte 0 -- -- 35
2019-05-01 17:00:00 23.3 11 Noroeste 24 Noroeste 0 -- -- 37
2019-05-01 16:00:00 23.4 7 Sudoeste 18 Norte 0 -- -- 32
2019-05-01 15:00:00 23.5 5 Sudoeste 13 Sudoeste 0 -- -- 38
2019-05-01 14:00:00 21.8 5 Norte 14 Norte 0 -- -- 35
2019-05-01 13:00:00 19.8 7 Nordeste 17 Este 0 -- -- 38
2019-05-01 12:00:00 17.3 9 Nordeste 19 Nordeste 0 -- -- 46
2019-05-01 11:00:00 14.6 9 Este 18 Nordeste 0 -- -- 50
2019-05-01 10:00:00 11.9 11 Este 18 Nordeste 0 -- -- 52
2019-05-01 09:00:00 8.9 12 Nordeste 17 Nordeste 0 -- -- 66
2019-05-01 08:00:00 6.8 11 Nordeste 16 Nordeste 0 -- -- 72
2019-05-01 07:00:00 5.9 8 Nordeste 14 Nordeste 0 -- -- 77
2019-05-01 06:00:00 6.3 0 Calma 15 Nordeste 0 -- -- 75
2019-05-01 05:00:00 7.4 8 Este 20 Este 0 -- -- 74
2019-05-01 04:00:00 9.1 13 Nordeste 24 Nordeste 0 -- -- 70
2019-05-01 03:00:00 9.6 9 Nordeste 15 Nordeste 0 -- -- 71
2019-05-01 02:00:00 10 2 Norte 9 Nordeste 0 -- -- 68
2019-05-01 01:00:00 11.5 4 Noroeste 17 Sudeste 0 -- -- 64
2019-05-01 00:00:00 13.8 5 Nordeste 17 Sudeste 0 -- -- 54
2019-04-30 23:00:00 16 8 Sudeste 19 Sudeste 0 -- -- 46
2019-04-30 22:00:00 15.6 8 Sudeste 13 Sudeste 0 -- -- 53
2019-04-30 21:00:00 20.1 5 Este 9 Este 0 -- -- 36
2019-04-30 20:00:00 21.8 6 Este 13 Este 0 -- -- 30
2019-04-30 19:00:00 22.7 8 Nordeste 15 Nordeste 0 -- -- 31
2019-04-30 18:00:00 23.1 4 Sur 14 Norte 0 -- -- 32
2019-04-30 17:00:00 22.5 9 Norte 16 Nordeste 0 -- -- 36
2019-04-30 16:00:00 22.3 7 Este 16 Nordeste 0 -- -- 36
2019-04-30 15:00:00 21.6 6 Este 20 Nordeste 0 -- -- 36
2019-04-30 14:00:00 20.9 9 Nordeste 19 Este 0 -- -- 36
2019-04-30 13:00:00 19.9 10 Este 26 Este 0 -- -- 37
2019-04-30 12:00:00 18.7 13 Este 22 Este 0 -- -- 41
2019-04-30 11:00:00 16.5 10 Nordeste 18 Nordeste 0 -- -- 56
2019-04-30 10:00:00 13.2 9 Nordeste 18 Nordeste 0 -- -- 73
2019-04-30 09:00:00 9.8 7 Nordeste 13 Nordeste 0 -- -- 83
2019-04-30 08:00:00 6.6 6 Nordeste 12 Nordeste 0 -- -- 89
2019-04-30 07:00:00 6.5 7 Nordeste 12 Nordeste 0 -- -- 88
2019-04-30 06:00:00 7 4 Nordeste 15 Nordeste 0 -- -- 86
2019-04-30 05:00:00 8.4 6 Nordeste 15 Nordeste 0 -- -- 81
2019-04-30 04:00:00 10.5 13 Nordeste 17 Nordeste 0 -- -- 75
2019-04-30 03:00:00 11.6 9 Nordeste 18 Nordeste 0 -- -- 69
2019-04-30 02:00:00 12.5 10 Nordeste 22 Nordeste 0 -- -- 67
2019-04-30 01:00:00 14.9 10 Este 28 Este 0 -- -- 56
2019-04-30 00:00:00 14.4 8 Nordeste 16 Nordeste 0 -- -- 67
2019-04-29 23:00:00 14 5 Este 15 Nordeste 0 -- -- 68
2019-04-29 22:00:00 15.7 0 Calma 8 Oeste 0 -- -- 64
2019-04-29 21:00:00 19.4 6 Oeste 11 Oeste 0 -- -- 52
2019-04-29 20:00:00 21.8 5 Noroeste 17 Noroeste 0 -- -- 40
2019-04-29 19:00:00 23.3 10 Oeste 16 Oeste 0 -- -- 37
2019-04-29 18:00:00 23.4 8 Oeste 19 Norte 0 -- -- 40
2019-04-29 17:00:00 22.9 10 Oeste 21 Oeste 0 -- -- 43
2019-04-29 16:00:00 22.2 4 Este 14 Norte 0 -- -- 40
2019-04-29 15:00:00 21.9 6 Noroeste 15 Norte 0 -- -- 43
2019-04-29 14:00:00 20.5 4 Sudeste 14 Nordeste 0 -- -- 39
2019-04-29 13:00:00 18.9 9 Nordeste 16 Nordeste 0 -- -- 51
2019-04-29 12:00:00 16.7 7 Nordeste 15 Este 0 -- -- 60
2019-04-29 11:00:00 14 8 Nordeste 17 Este 0 -- -- 66
2019-04-29 10:00:00 10.9 11 Nordeste 20 Este 0 -- -- 71
2019-04-29 09:00:00 8.4 6 Nordeste 18 Este 0 -- -- 79
2019-04-29 08:00:00 6 6 Nordeste 18 Este 0 -- -- 86
2019-04-29 07:00:00 6.4 6 Nordeste 19 Este 0 -- -- 84
2019-04-29 06:00:00 7.3 13 Nordeste 20 Este 0 -- -- 83
2019-04-29 05:00:00 8 12 Nordeste 21 Nordeste 0 -- -- 83
2019-04-29 04:00:00 8.6 12 Este 18 Este 0 -- -- 83
2019-04-29 03:00:00 8.9 10 Nordeste 14 Nordeste 0 -- -- 82
2019-04-29 02:00:00 9.7 8 Nordeste 13 Nordeste 0 -- -- 77
2019-04-29 01:00:00 10.9 6 Nordeste 20 Este 0 -- -- 71
2019-04-29 00:00:00 14.8 10 Sudeste 23 Este 0 -- -- 56
2019-04-28 23:00:00 14.1 9 Sudeste 17 Este 0 -- -- 55
2019-04-28 22:00:00 13.7 3 Sudoeste 8 Este 0 -- -- 58
2019-04-28 21:00:00 18.1 4 Nordeste 10 Este 0 -- -- 40
2019-04-28 20:00:00 19.9 6 Este 12 Este 0 -- -- 35
2019-04-28 19:00:00 20.8 4 Nordeste 17 Nordeste 0 -- -- 38
2019-04-28 18:00:00 21 6 Nordeste 14 Este 0 -- -- 36
2019-04-28 17:00:00 20.9 7 Norte 14 Norte 0 -- -- 41
2019-04-28 16:00:00 19.9 6 Norte 17 Nordeste 0 -- -- 46
2019-04-28 15:00:00 19.1 8 Nordeste 17 Nordeste 0 -- -- 52
2019-04-28 14:00:00 18.3 7 Nordeste 19 Nordeste 0 -- -- 53
2019-04-28 13:00:00 16.6 10 Este 18 Este 0 -- -- 55
2019-04-28 12:00:00 14.4 10 Nordeste 19 Nordeste 0 -- -- 61
2019-04-28 11:00:00 12.1 12 Este 21 Este 0 -- -- 69
2019-04-28 10:00:00 9.6 11 Nordeste 21 Este 0 -- -- 80
2019-04-28 09:00:00 6.8 14 Nordeste 21 Nordeste 0 -- -- 87
2019-04-28 08:00:00 5 12 Nordeste 20 Este 0 -- -- 91
2019-04-28 07:00:00 5.1 13 Nordeste 22 Nordeste 0 -- -- 90
2019-04-28 06:00:00 5.6 9 Nordeste 18 Nordeste 0 -- -- 89
2019-04-28 05:00:00 6 13 Nordeste 21 Nordeste 0 -- -- 89
2019-04-28 04:00:00 6.2 12 Nordeste 23 Nordeste 0 -- -- 89
2019-04-28 03:00:00 6.8 13 Nordeste 20 Nordeste 0 -- -- 88
2019-04-28 02:00:00 7.6 9 Nordeste 22 Norte 0 -- -- 88
2019-04-28 01:00:00 8.5 8 Norte 23 Nordeste 0 -- -- 87
2019-04-28 00:00:00 9.5 13 Nordeste 20 Nordeste 0 -- -- 85
2019-04-27 23:00:00 8.7 3 Oeste 10 Sur 0 -- -- 75
2019-04-27 22:00:00 11.6 6 Sudeste 9 Sudeste 0 -- -- 68
2019-04-27 21:00:00 17.3 4 Sudeste 5 Sudeste 0 -- -- 50
2019-04-27 20:00:00 18.4 2 Este 10 Noroeste 0 -- -- 42
2019-04-27 19:00:00 19.1 5 Noroeste 15 Norte 0 -- -- 42
2019-04-27 18:00:00 18.6 7 Nordeste 19 Norte 0 -- -- 46
2019-04-27 17:00:00 18.9 8 Noroeste 17 Oeste 0 -- -- 50
2019-04-27 16:00:00 17.4 5 Nordeste 14 Oeste 0 -- -- 54
2019-04-27 15:00:00 17.2 6 Noroeste 17 Noroeste 0 -- -- 54
2019-04-27 14:00:00 15.9 8 Noroeste 15 Noroeste 0 -- -- 62
2019-04-27 13:00:00 14.3 12 Oeste 20 Noroeste 0 -- -- 66
2019-04-27 12:00:00 12.6 10 Noroeste 17 Noroeste 0 -- -- 69
2019-04-27 11:00:00 10.7 9 Oeste 14 Oeste 0 -- -- 76
2019-04-27 10:00:00 8.8 5 Noroeste 10 Noroeste 0 -- -- 81
2019-04-27 09:00:00 5.7 2 Sudoeste 5 Sudoeste 0 -- -- 92
2019-04-27 08:00:00 0.5 0 Calma 6 Sur 0 -- -- 94
2019-04-27 07:00:00 0.5 0 Calma 4 Sur 0 -- -- 92
2019-04-27 06:00:00 1.2 3 Sur 9 Sur 0 -- -- 91
2019-04-27 05:00:00 1.9 0 Calma 6 Oeste 0 -- -- 91
2019-04-27 04:00:00 1.7 4 Oeste 7 Noroeste 0 -- -- 90
2019-04-27 03:00:00 2.4 0 Calma 5 Sur 0 -- -- 90
2019-04-27 02:00:00 3 0 Calma 5 Sur 0 -- -- 88
2019-04-27 01:00:00 3.8 3 Oeste 8 Oeste 0 -- -- 87
2019-04-27 00:00:00 5 0 Calma 7 Sur 0 -- -- 85
2019-04-26 23:00:00 6.3 0 Calma 9 Sudoeste 0 -- -- 80
2019-04-26 22:00:00 8.2 6 Oeste 17 Oeste 0 -- -- 75
2019-04-26 21:00:00 11.4 9 Oeste 19 Oeste 0 -- -- 63
2019-04-26 20:00:00 13.3 10 Oeste 26 Oeste 0 -- -- 55
2019-04-26 19:00:00 13.9 14 Oeste 27 Oeste 0 -- -- 51
2019-04-26 18:00:00 14.3 15 Sudoeste 28 Oeste 0 -- -- 52
2019-04-26 17:00:00 14.9 18 Oeste 37 Oeste 0 -- -- 53
2019-04-26 16:00:00 14.6 13 Oeste 28 Noroeste 0 -- -- 55
2019-04-26 15:00:00 13.7 18 Oeste 34 Noroeste 0 -- -- 57
2019-04-26 14:00:00 12.9 18 Oeste 35 Oeste 0 -- -- 61
2019-04-26 13:00:00 11.9 19 Noroeste 30 Oeste 0 -- -- 65
2019-04-26 12:00:00 10.3 16 Noroeste 30 Oeste 0 -- -- 71
2019-04-26 11:00:00 8.5 18 Oeste 30 Oeste 0 -- -- 82
2019-04-26 10:00:00 7.3 17 Oeste 26 Oeste 0 -- -- 89
2019-04-26 09:00:00 5.8 11 Oeste 20 Oeste 0 -- -- 94
2019-04-26 08:00:00 3 3 Oeste 9 Oeste 0 -- -- 95
2019-04-26 07:00:00 3.6 7 Oeste 14 Sudoeste 0 -- -- 94
2019-04-26 06:00:00 3.9 11 Oeste 19 Sudoeste 0 -- -- 94
2019-04-26 05:00:00 4 11 Oeste 24 Oeste 0 -- -- 93
2019-04-26 04:00:00 4.7 15 Oeste 24 Oeste 0 -- -- 92
2019-04-26 03:00:00 5.1 14 Oeste 29 Oeste 0 -- -- 91
2019-04-26 02:00:00 6.3 16 Oeste 31 Sudoeste 0 -- -- 89
2019-04-26 01:00:00 6.2 21 Oeste 36 Sudoeste 0 -- -- 88
2019-04-26 00:00:00 6.1 24 Oeste 38 Oeste 0 -- -- 87
2019-04-25 23:00:00 5.7 24 Oeste 40 Oeste 0 -- -- 86
2019-04-25 22:00:00 5.6 15 Oeste 32 Oeste 0 -- -- 88
2019-04-25 21:00:00 5.8 18 Oeste 48 Oeste 0 -- -- 86
2019-04-25 20:00:00 6.9 31 Oeste 56 Oeste 0.8 -- -- 83
2019-04-25 19:00:00 8.1 26 Oeste 72 Oeste 1 -- -- 80
2019-04-25 18:00:00 10.1 31 Oeste 62 Oeste 0 -- -- 66
2019-04-25 17:00:00 8.5 33 Oeste 55 Oeste 0.2 -- -- 77
2019-04-25 16:00:00 7.6 31 Oeste 51 Sudoeste 0.4 -- -- 84
2019-04-25 15:00:00 10.1 26 Oeste 51 Sudoeste 0 -- -- 71
2019-04-25 14:00:00 8.9 26 Oeste 54 Oeste 0.2 -- -- 72
2019-04-25 13:00:00 8.2 28 Oeste 44 Oeste 0 -- -- 72
2019-04-25 12:00:00 7 26 Oeste 48 Oeste 0.2 -- -- 84
2019-04-25 11:00:00 7.2 27 Oeste 49 Oeste 0 -- -- 80
2019-04-25 10:00:00 6.5 27 Oeste 47 Oeste 0 -- -- 79
2019-04-25 09:00:00 5.3 23 Oeste 40 Oeste 0.2 -- -- 88
2019-04-25 08:00:00 4.5 20 Oeste 38 Sudoeste 0 -- -- 91
2019-04-25 07:00:00 4.8 22 Sudoeste 35 Sudoeste 0.2 -- -- 92
2019-04-25 06:00:00 4.5 12 Oeste 24 Oeste 0 -- -- 93
2019-04-25 05:00:00 3.3 10 Oeste 46 Oeste 0 -- -- 91
2019-04-25 04:00:00 5.2 17 Oeste 27 Sudoeste 0.2 -- -- 92
2019-04-25 03:00:00 4.9 16 Sudoeste 28 Sudoeste 0.2 -- -- 93
2019-04-25 02:00:00 5.2 20 Oeste 34 Oeste 2 -- -- 92
2019-04-25 01:00:00 6.3 14 Oeste 33 Oeste 0.2 -- -- 93
2019-04-25 00:00:00 6.6 21 Oeste 37 Oeste 3 -- -- 93
2019-04-24 23:00:00 7.2 13 Oeste 36 Oeste 1.8 -- -- 92
2019-04-24 22:00:00 7.5 20 Oeste 38 Sudoeste 1 -- -- 90
2019-04-24 21:00:00 8.1 24 Oeste 49 Oeste 0 -- -- 85
2019-04-24 20:00:00 8.5 24 Oeste 56 Oeste 0 -- -- 84
2019-04-24 19:00:00 8.8 30 Oeste 53 Oeste 0.6 -- -- 88
2019-04-24 18:00:00 8.9 25 Oeste 54 Oeste 3.4 -- -- 90
2019-04-24 17:00:00 9.8 26 Oeste 52 Oeste 0.8 -- -- 85
2019-04-24 16:00:00 12.5 33 Oeste 67 Oeste 0 -- -- 75
2019-04-24 15:00:00 12.9 36 Oeste 65 Sudoeste 0 -- -- 69
2019-04-24 14:00:00 10.7 28 Oeste 61 Sudoeste 0 -- -- 83
2019-04-24 13:00:00 9.5 28 Sudoeste 43 Sudoeste 0.2 -- -- 86
2019-04-24 12:00:00 8.3 26 Sudoeste 49 Sur 0 -- -- 85
2019-04-24 11:00:00 5.8 25 Sur 45 Sudeste 0.2 -- -- 93
2019-04-24 10:00:00 1.9 11 Sur 25 Sur 1.6 -- -- 93
2019-04-24 09:00:00 1.5 15 Sur 33 Sudoeste 2.8 -- -- 91
2019-04-24 08:00:00 3.3 18 Sudoeste 33 Sur 1.2 -- -- 88
2019-04-24 07:00:00 3.9 16 Sudoeste 29 Sudoeste 0 -- -- 88
2019-04-24 06:00:00 3.6 13 Sudoeste 25 Sudoeste 0 -- -- 89
2019-04-24 05:00:00 2.5 10 Sudoeste 18 Sudoeste 0 -- -- 92
2019-04-24 04:00:00 1.9 9 Sudoeste 19 Sudoeste 0 -- -- 91
2019-04-24 03:00:00 2.1 5 Sudoeste 19 Sudoeste 0 -- -- 89
2019-04-24 02:00:00 3.1 14 Oeste 23 Sudoeste 0 -- -- 89
2019-04-24 01:00:00 3.4 11 Sudoeste 24 Oeste 0 -- -- 86
2019-04-24 00:00:00 3.6 10 Sudoeste 22 Oeste 0 -- -- 86
2019-04-23 23:00:00 4.6 13 Oeste 26 Sudoeste 0 -- -- 84
2019-04-23 22:00:00 4.9 15 Oeste 27 Oeste 0 -- -- 81
2019-04-23 21:00:00 6.2 14 Oeste 36 Oeste 0 -- -- 73
2019-04-23 20:00:00 8 17 Oeste 38 Noroeste 0 -- -- 69
2019-04-23 19:00:00 9.1 23 Oeste 37 Oeste 0 -- -- 67
2019-04-23 18:00:00 8.4 31 Oeste 52 Oeste 0 -- -- 69
2019-04-23 17:00:00 12.2 22 Oeste 41 Oeste 0 -- -- 60
2019-04-23 16:00:00 11.7 18 Oeste 39 Oeste 0 -- -- 53
2019-04-23 15:00:00 12.2 22 Oeste 36 Oeste 0 -- -- 52
2019-04-23 14:00:00 11.2 24 Sudoeste 39 Sudoeste 0 -- -- 58
2019-04-23 13:00:00 8.4 19 Oeste 33 Oeste 0 -- -- 69
2019-04-23 12:00:00 8.2 21 Oeste 37 Oeste 0 -- -- 72
2019-04-23 11:00:00 7.8 21 Oeste 31 Oeste 0 -- -- 77
2019-04-23 10:00:00 6.6 17 Oeste 29 Oeste 0 -- -- 86
2019-04-23 09:00:00 6 14 Oeste 24 Sudoeste 0 -- -- 89
2019-04-23 08:00:00 5.6 12 Oeste 25 Oeste 0.2 -- -- 90
2019-04-23 07:00:00 6 14 Oeste 27 Oeste 0 -- -- 88
2019-04-23 06:00:00 6.7 12 Oeste 31 Oeste 0 -- -- 88
2019-04-23 05:00:00 8.7 19 Oeste 31 Oeste 0.2 -- -- 87
2019-04-23 04:00:00 9.5 13 Oeste 24 Sudoeste 0.6 -- -- 88
2019-04-23 03:00:00 9.6 0 Calma 11 Oeste 0.4 -- -- 88
2019-04-23 02:00:00 9.8 8 Oeste 17 Oeste 0 -- -- 86
2019-04-23 01:00:00 10.3 9 Oeste 23 Oeste 0.2 -- -- 84
2019-04-23 00:00:00 11.6 9 Oeste 19 Oeste 0 -- -- 72